createdAt,value
2018-11-27T00:00:01.205Z,4.6
2018-11-27T00:05:01.250Z,4.4
2018-11-27T00:10:01.221Z,4.2
2018-11-27T00:15:01.251Z,4.4
2018-11-27T00:20:01.231Z,3.8
2018-11-27T00:25:01.235Z,3.7
2018-11-27T00:30:01.237Z,3.8
2018-11-27T00:40:06.240Z,3.4
2018-11-27T00:45:06.253Z,3.7
2018-11-27T00:50:06.249Z,3.9
2018-11-27T00:55:06.248Z,4.0
2018-11-27T01:00:06.263Z,4.4
2018-11-27T01:10:01.250Z,4.6
2018-11-27T01:15:01.277Z,4.6
2018-11-27T01:20:01.255Z,4.7
2018-11-27T01:26:06.254Z,4.8
2018-11-27T01:31:06.239Z,5.1
2018-11-27T01:36:06.237Z,5.0
2018-11-27T01:41:01.243Z,5.2
2018-11-27T01:46:01.249Z,5.0
2018-11-27T01:51:01.238Z,4.8
2018-11-27T01:56:01.272Z,4.7
2018-11-27T02:01:06.248Z,4.4
2018-11-27T02:06:06.256Z,4.2
2018-11-27T02:11:06.270Z,4.4
2018-11-27T02:17:01.229Z,4.8
2018-11-27T02:22:01.235Z,5.0
2018-11-27T02:27:01.244Z,5.2
2018-11-27T02:32:01.255Z,5.3
2018-11-27T02:37:01.271Z,5.9
2018-11-27T02:42:01.240Z,5.3
2018-11-27T02:47:01.286Z,5.6
2018-11-27T02:57:01.281Z,5.5
2018-11-27T03:02:06.244Z,5.0
2018-11-27T03:07:02.226Z,5.9
2018-11-27T03:12:01.241Z,5.8
2018-11-27T03:17:06.261Z,6.0
2018-11-27T03:22:01.305Z,6.6
2018-11-27T03:27:01.267Z,7.4
2018-11-27T03:32:01.325Z,7.0
2018-11-27T03:37:01.286Z,7.7
2018-11-27T03:47:01.254Z,7.8
2018-11-27T03:52:01.245Z,7.5
2018-11-27T03:57:01.262Z,7.6
2018-11-27T04:02:01.249Z,7.3
2018-11-27T04:07:01.263Z,7.2
2018-11-27T04:12:01.241Z,6.8
2018-11-27T04:17:06.258Z,6.4
2018-11-27T04:22:01.823Z,6.8
2018-11-27T04:27:01.352Z,6.4
2018-11-27T04:32:01.251Z,6.0
2018-11-27T04:37:01.239Z,6.0
2018-11-27T04:42:01.241Z,5.8
2018-11-27T04:47:01.243Z,5.1
2018-11-27T04:52:01.239Z,5.1
2018-11-27T04:57:01.277Z,5.5
2018-11-27T05:07:01.245Z,5.5
2018-11-27T05:12:01.390Z,5.4
2018-11-27T05:17:06.255Z,5.4
2018-11-27T05:22:01.292Z,5.6
2018-11-27T05:32:01.261Z,6.2
2018-11-27T05:37:01.235Z,6.6
2018-11-27T05:42:01.236Z,6.8
2018-11-27T05:47:01.243Z,6.6
2018-11-27T05:57:01.239Z,6.2
2018-11-27T06:02:01.254Z,6.9
2018-11-27T06:07:01.248Z,6.6
2018-11-27T06:13:06.248Z,7.0
2018-11-27T06:18:06.250Z,7.4
2018-11-27T06:23:01.269Z,7.6
2018-11-27T06:28:01.272Z,6.9
2018-11-27T06:33:01.270Z,7.0
2018-11-27T06:38:01.250Z,6.6
2018-11-27T06:48:01.262Z,6.4
2018-11-27T06:53:01.245Z,6.6
2018-11-27T06:58:01.239Z,6.6
2018-11-27T07:03:01.243Z,6.9
2018-11-27T07:08:01.246Z,6.7
2018-11-27T07:13:01.240Z,6.8
2018-11-27T07:18:01.245Z,6.9
2018-11-27T07:23:01.251Z,7.4
2018-11-27T07:28:01.250Z,7.4
2018-11-27T07:33:01.265Z,7.8
2018-11-27T07:38:01.250Z,7.9
2018-11-27T07:43:01.245Z,7.9
2018-11-27T07:48:01.249Z,8.0
2018-11-27T07:53:01.318Z,8.4
2018-11-27T07:58:04.148Z,8.4
2018-11-27T08:03:01.676Z,8.7
2018-11-27T08:08:01.250Z,9.0
2018-11-27T08:13:01.246Z,10.0
2018-11-27T08:18:01.249Z,10.2
2018-11-27T08:23:01.259Z,10.9
2018-11-27T08:28:01.263Z,12.1
2018-11-27T08:33:01.251Z,13.5
2018-11-27T08:38:01.242Z,13.7
2018-11-27T08:43:01.231Z,14.3
2018-11-27T08:48:01.247Z,14.4
2018-11-27T08:53:01.247Z,14.3
2018-11-27T08:58:01.246Z,13.5
2018-11-27T09:03:01.309Z,12.7
2018-11-27T09:08:01.249Z,13.4
2018-11-27T09:13:01.825Z,13.1
2018-11-27T09:18:06.253Z,13.8
2018-11-27T09:23:01.270Z,15.1
2018-11-27T09:28:01.236Z,16.6
2018-11-27T09:33:01.241Z,16.5
2018-11-27T09:38:01.256Z,19.2
2018-11-27T09:43:01.239Z,21.1
2018-11-27T09:48:01.241Z,21.0
2018-11-27T09:53:01.245Z,21.9
2018-11-27T09:58:06.400Z,23.8
2018-11-27T10:03:01.277Z,22.4
2018-11-27T10:08:06.259Z,21.0
2018-11-27T10:13:01.298Z,20.1
2018-11-27T10:18:01.308Z,23.5
2018-11-27T10:23:01.278Z,22.1
2018-11-27T10:28:01.251Z,20.8
2018-11-27T10:33:01.242Z,21.0
2018-11-27T10:38:01.239Z,20.6
2018-11-27T10:43:01.249Z,15.8
2018-11-27T10:48:01.251Z,14.3
2018-11-27T10:53:01.289Z,14.8
2018-11-27T10:58:02.392Z,12.8
2018-11-27T11:03:01.264Z,13.0
2018-11-27T11:08:01.245Z,13.0
2018-11-27T11:13:01.237Z,13.4
2018-11-27T11:18:01.247Z,13.2
2018-11-27T11:23:01.247Z,13.6
2018-11-27T11:28:01.244Z,14.0
2018-11-27T11:33:01.246Z,14.4
2018-11-27T11:38:06.255Z,14.8
2018-11-27T11:43:01.271Z,15.2
2018-11-27T11:48:06.257Z,15.4
2018-11-27T11:53:06.259Z,14.9
2018-11-27T11:58:01.261Z,14.2
2018-11-27T12:03:01.233Z,13.2
2018-11-27T12:08:01.242Z,12.0
2018-11-27T12:13:01.244Z,12.0
2018-11-27T12:18:01.249Z,10.9
2018-11-27T12:23:01.245Z,9.6
2018-11-27T12:28:01.417Z,8.9
2018-11-27T12:33:02.335Z,8.2
2018-11-27T12:38:01.251Z,7.0
2018-11-27T12:43:01.242Z,7.6
2018-11-27T12:48:01.232Z,7.3
2018-11-27T12:53:01.241Z,6.9
2018-11-27T12:58:01.240Z,7.7
2018-11-27T13:03:01.264Z,8.3
2018-11-27T13:13:01.253Z,8.7
2018-11-27T13:18:01.244Z,8.8
2018-11-27T13:23:01.279Z,8.2
2018-11-27T13:28:06.223Z,7.6
2018-11-27T13:33:06.244Z,6.9
2018-11-27T13:43:06.450Z,7.1
2018-11-27T14:05:01.141Z,6.4
2018-11-27T14:10:01.151Z,6.8
2018-11-27T14:15:01.137Z,8.1
2018-11-27T14:20:01.576Z,9.0
2018-11-27T14:25:01.133Z,9.4
2018-11-27T14:30:01.153Z,10.8
2018-11-27T14:35:01.133Z,12.4
2018-11-27T14:40:01.137Z,12.9
2018-11-27T14:45:01.138Z,13.1
2018-11-27T14:50:04.442Z,13.4
2018-11-27T14:55:01.165Z,13.0
2018-11-27T15:00:01.175Z,12.0
2018-11-27T15:05:01.183Z,10.8
2018-11-27T15:10:01.181Z,10.1
2018-11-27T15:15:01.181Z,9.0
2018-11-27T15:20:01.241Z,9.2
2018-11-27T15:25:01.171Z,9.4
2018-11-27T15:30:01.192Z,10.0
2018-11-27T15:35:01.189Z,11.8
2018-11-27T15:40:01.187Z,12.8
2018-11-27T15:45:01.183Z,13.8
2018-11-27T15:50:01.148Z,14.3
2018-11-27T15:55:01.161Z,14.9
2018-11-27T16:00:01.159Z,13.6
2018-11-27T16:05:01.196Z,14.6
2018-11-27T16:10:01.202Z,13.1
2018-11-27T16:15:01.201Z,13.5
2018-11-27T16:20:01.487Z,13.6
2018-11-27T16:25:01.186Z,13.9
2018-11-27T16:30:01.192Z,13.5
2018-11-27T16:35:01.197Z,14.3
2018-11-27T16:40:01.242Z,14.8
2018-11-27T16:45:01.216Z,14.8
2018-11-27T16:50:01.219Z,15.5
2018-11-27T16:55:01.206Z,15.0
2018-11-27T17:00:01.207Z,14.3
2018-11-27T17:05:01.228Z,14.4
2018-11-27T17:10:01.185Z,15.0
2018-11-27T17:15:01.176Z,14.5
2018-11-27T17:20:02.206Z,15.9
2018-11-27T17:25:01.189Z,17.6
2018-11-27T17:30:01.211Z,18.6
2018-11-27T17:35:01.210Z,19.0
2018-11-27T17:40:01.215Z,19.8
2018-11-27T17:45:01.218Z,19.8
2018-11-27T17:50:01.192Z,19.6
2018-11-27T17:55:01.195Z,19.2
2018-11-27T18:00:01.228Z,18.4
2018-11-27T18:05:01.281Z,18.3
2018-11-27T18:15:01.357Z,17.8
2018-11-27T18:20:02.054Z,16.6
2018-11-27T18:25:01.200Z,16.3
2018-11-27T18:30:02.257Z,15.1
2018-11-27T18:35:01.244Z,13.6
2018-11-27T18:40:01.236Z,12.7
2018-11-27T18:45:01.239Z,12.3
2018-11-27T18:50:01.243Z,11.7
2018-11-27T18:55:01.241Z,12.1
2018-11-27T19:00:01.246Z,12.5
2018-11-27T19:05:01.250Z,12.7
2018-11-27T19:10:01.236Z,13.0
2018-11-27T19:15:01.210Z,13.6
2018-11-27T19:20:01.247Z,13.8
2018-11-27T19:25:01.212Z,14.6
2018-11-27T19:30:01.247Z,15.8
2018-11-27T19:35:01.245Z,16.7
2018-11-27T19:40:01.227Z,17.1
2018-11-27T19:45:01.361Z,17.2
2018-11-27T19:50:01.309Z,16.8
2018-11-27T19:55:01.355Z,16.3
2018-11-27T20:00:01.227Z,15.5
2018-11-27T20:05:01.232Z,15.7
2018-11-27T20:10:01.234Z,15.4
2018-11-27T20:15:01.236Z,15.4
2018-11-27T20:20:01.239Z,14.8
2018-11-27T20:30:01.242Z,14.2
2018-11-27T20:35:01.257Z,13.4
2018-11-27T20:40:01.248Z,12.3
2018-11-27T20:45:01.242Z,11.6
2018-11-27T20:50:01.343Z,10.6
2018-11-27T20:55:01.247Z,10.4
2018-11-27T21:00:01.303Z,10.9
2018-11-27T21:05:01.321Z,10.8
2018-11-27T21:10:01.234Z,11.6
2018-11-27T21:15:01.244Z,11.5
2018-11-27T21:20:01.212Z,11.4
2018-11-27T21:25:01.214Z,10.6
2018-11-27T21:30:01.242Z,9.8
2018-11-27T21:35:01.270Z,9.1
2018-11-27T21:40:01.251Z,9.0
2018-11-27T21:45:01.247Z,8.7
2018-11-27T21:55:01.291Z,9.8
2018-11-27T22:00:01.260Z,10.2
2018-11-27T22:05:01.263Z,9.9
2018-11-27T22:10:06.245Z,10.1
2018-11-27T22:15:06.239Z,10.3
2018-11-27T22:20:06.265Z,10.2
2018-11-27T22:25:06.246Z,10.2
2018-11-27T22:30:06.248Z,10.9
2018-11-27T22:40:02.042Z,11.5
2018-11-27T22:45:01.325Z,12.0
2018-11-27T22:55:01.266Z,11.6
2018-11-27T23:00:01.238Z,11.5
2018-11-27T23:05:01.246Z,11.2
2018-11-27T23:10:01.246Z,11.0
2018-11-27T23:15:02.069Z,11.4
2018-11-27T23:20:01.277Z,11.7
2018-11-27T23:25:06.224Z,11.6
2018-11-27T23:30:01.287Z,11.7
2018-11-27T23:41:01.240Z,11.0
2018-11-27T23:46:02.355Z,10.6
2018-11-27T23:51:01.242Z,10.5
2018-11-27T23:56:01.266Z,10.2
